Aviation Digital Data Service (ADDS)

Output produced by METARs form (1723 UTC 25 February 2018)
found at http://aviationweather.gov/adds/metars/
 
KIAD 251538Z 2516/2618 00000KT 5SM -RA BR BKN005 BKN070 OVC090 WS020/22035KT 
     FM251630 VRB03KT 6SM BR BKN035 WS020/22035KT 
     FM251800 21006KT P6SM OVC045 WS020/22035KT 
     FM252000 23010G19KT P6SM OVC250 
     FM252300 28007KT P6SM BKN250 
     FM260300 32006KT P6SM BKN250 
     FM261700 33006KT P6SM SCT100